createdAt,value
2023-04-14T00:00:49.362Z,100478.44
2023-04-14T00:03:18.160Z,100476.75
2023-04-14T00:05:46.402Z,100476.03
2023-04-14T00:08:15.887Z,100487.47
2023-04-14T00:10:44.031Z,100487.47
2023-04-14T00:13:12.017Z,100491.97
2023-04-14T00:15:42.067Z,100492.81
2023-04-14T00:18:10.135Z,100500.84
2023-04-14T00:20:38.163Z,100498.19
2023-04-14T00:23:06.228Z,100495.50
2023-04-14T00:25:35.589Z,100497.31
2023-04-14T00:28:03.640Z,100508.91
2023-04-14T00:30:31.657Z,100500.00
2023-04-14T00:32:59.670Z,100512.53
2023-04-14T00:35:27.746Z,100516.22
2023-04-14T00:37:56.665Z,100523.25
2023-04-14T00:40:24.647Z,100517.91
2023-04-14T00:42:54.049Z,100528.63
2023-04-14T00:45:22.207Z,100526.94
2023-04-14T00:47:51.128Z,100523.25
2023-04-14T00:50:21.416Z,100528.63
2023-04-14T00:52:51.179Z,100533.16
2023-04-14T00:55:21.200Z,100540.19
2023-04-14T00:57:49.991Z,100539.31
2023-04-14T01:00:19.903Z,100533.97
2023-04-14T01:02:48.093Z,100526.94
2023-04-14T01:05:16.481Z,100540.19
2023-04-14T01:07:45.284Z,100533.97
2023-04-14T01:10:13.669Z,100534.81
2023-04-14T01:13:01.446Z,100528.63
2023-04-14T01:15:36.865Z,100533.97
2023-04-14T01:18:11.516Z,100537.66
2023-04-14T01:20:43.443Z,100537.66
2023-04-14T01:23:17.094Z,100540.31
2023-04-14T01:26:16.835Z,100542.00
2023-04-14T01:29:13.424Z,100553.72
2023-04-14T01:31:48.171Z,100548.34
2023-04-14T01:34:23.545Z,100552.03
2023-04-14T01:36:56.001Z,100560.06
2023-04-14T01:39:27.791Z,100557.41
2023-04-14T01:41:59.008Z,100565.44
2023-04-14T01:44:28.319Z,100566.25
2023-04-14T01:47:03.518Z,100570.06
2023-04-14T01:49:34.365Z,100580.50
2023-04-14T01:52:04.187Z,100578.81
2023-04-14T01:54:33.595Z,100588.53
2023-04-14T01:57:04.223Z,100584.19
2023-04-14T01:59:35.059Z,100593.91
2023-04-14T02:02:06.352Z,100595.72
2023-04-14T02:04:36.305Z,100596.56
2023-04-14T02:07:06.555Z,100484.81
2023-04-14T02:09:36.918Z,100597.56
2023-04-14T02:12:07.285Z,100602.94
2023-04-14T02:14:36.273Z,100602.94
2023-04-14T02:17:07.419Z,100606.44
2023-04-14T02:19:37.052Z,100612.66
2023-04-14T02:22:05.397Z,100607.28
2023-04-14T02:24:33.501Z,100600.25
2023-04-14T02:27:08.835Z,100605.59
2023-04-14T02:29:39.050Z,100616.31
2023-04-14T02:32:13.479Z,100616.19
2023-04-14T02:34:49.011Z,100622.38
2023-04-14T02:37:22.463Z,100612.66
2023-04-14T02:39:54.974Z,100504.81
2023-04-14T02:42:26.998Z,100627.03
2023-04-14T02:45:03.458Z,100626.31
2023-04-14T02:47:37.261Z,100628.72
2023-04-14T02:50:08.200Z,100634.34
2023-04-14T02:52:36.813Z,100634.06
2023-04-14T02:55:06.450Z,100623.63
2023-04-14T02:57:35.233Z,100627.16
2023-04-14T03:00:03.923Z,100632.41
2023-04-14T03:02:34.815Z,100629.00
2023-04-14T03:05:04.153Z,100637.75
2023-04-14T03:07:33.662Z,100642.13
2023-04-14T03:10:02.503Z,100644.78
2023-04-14T03:12:31.592Z,100643.09
2023-04-14T03:15:00.689Z,100639.44
2023-04-14T03:17:29.915Z,100650.16
2023-04-14T03:20:00.301Z,100639.97
2023-04-14T03:22:29.230Z,100655.50
2023-04-14T03:24:58.944Z,100652.81
2023-04-14T03:27:30.155Z,100605.22
2023-04-14T03:30:03.294Z,100660.00
2023-04-14T03:32:35.966Z,100659.19
2023-04-14T03:35:07.107Z,100659.19
2023-04-14T03:37:39.158Z,100654.09
2023-04-14T03:40:11.245Z,100664.53
2023-04-14T03:42:41.612Z,100668.19
2023-04-14T03:45:11.044Z,100664.53
2023-04-14T03:47:39.083Z,100672.56
2023-04-14T03:50:11.804Z,100669.91
2023-04-14T03:52:42.622Z,100669.91
2023-04-14T03:55:13.662Z,100676.06
2023-04-14T03:57:43.912Z,100675.25
2023-04-14T04:00:15.939Z,100663.09
2023-04-14T04:02:45.349Z,100665.09
2023-04-14T04:05:15.708Z,100676.22
2023-04-14T04:07:45.950Z,100676.34
2023-04-14T04:10:15.164Z,100678.88
2023-04-14T04:12:46.558Z,100673.81
2023-04-14T04:15:14.962Z,100685.97
2023-04-14T04:17:44.563Z,100693.00
2023-04-14T04:20:16.436Z,100689.59
2023-04-14T04:22:46.426Z,100523.78
2023-04-14T04:25:15.114Z,100697.50
2023-04-14T04:27:43.457Z,100703.72
2023-04-14T04:30:12.506Z,100702.88
2023-04-14T04:32:40.853Z,100706.41
2023-04-14T04:35:10.526Z,100714.44
2023-04-14T04:37:40.520Z,100715.44
2023-04-14T04:40:09.852Z,100723.47
2023-04-14T04:42:42.326Z,100723.47
2023-04-14T04:45:11.410Z,100720.78
2023-04-14T04:47:39.520Z,100728.81
2023-04-14T04:50:08.522Z,100730.50
2023-04-14T04:52:36.640Z,100734.19
2023-04-14T04:55:07.422Z,100737.69
2023-04-14T04:57:35.509Z,100730.78
2023-04-14T05:00:03.791Z,100739.53
2023-04-14T05:02:32.001Z,100739.53
2023-04-14T05:05:00.064Z,100744.91
2023-04-14T05:07:28.271Z,100741.22
2023-04-14T05:09:56.283Z,100750.25
2023-04-14T05:12:25.791Z,100744.91
2023-04-14T05:14:53.885Z,100746.59
2023-04-14T05:17:21.964Z,100751.94
2023-04-14T05:19:50.535Z,100753.22
2023-04-14T05:22:18.594Z,100753.09
2023-04-14T05:24:50.559Z,100750.28
2023-04-14T05:27:18.620Z,100746.47
2023-04-14T05:29:47.991Z,100749.16
2023-04-14T05:32:16.348Z,100748.44
2023-04-14T05:34:44.326Z,100749.41
2023-04-14T05:37:12.428Z,100748.59
2023-04-14T05:39:40.372Z,100754.09
2023-04-14T05:42:08.303Z,100753.09
2023-04-14T05:44:36.546Z,100749.72
2023-04-14T05:47:06.095Z,100753.34
2023-04-14T05:49:34.071Z,100749.72
2023-04-14T05:52:02.177Z,100673.59
2023-04-14T05:54:30.242Z,100755.88
2023-04-14T05:56:58.194Z,100757.56
2023-04-14T05:59:26.154Z,100761.25
2023-04-14T06:01:54.228Z,100759.53
2023-04-14T06:04:23.969Z,100762.19
2023-04-14T06:06:52.294Z,100764.06
2023-04-14T06:09:20.278Z,100759.53
2023-04-14T06:11:48.253Z,100754.44
2023-04-14T06:14:16.234Z,100759.53
2023-04-14T06:16:44.229Z,100755.88
2023-04-14T06:19:12.198Z,100759.53
2023-04-14T06:21:41.622Z,100756.84
2023-04-14T06:24:09.680Z,100756.84
2023-04-14T06:26:38.073Z,100765.16
2023-04-14T06:29:07.679Z,100757.84
2023-04-14T06:31:36.078Z,100728.34
2023-04-14T06:34:04.119Z,100770.22
2023-04-14T06:36:32.916Z,100770.22
2023-04-14T06:39:02.765Z,100711.44
2023-04-14T06:41:30.878Z,100767.41
2023-04-14T06:43:58.862Z,100764.88
2023-04-14T06:46:26.929Z,100766.59
2023-04-14T06:48:54.999Z,100762.34
2023-04-14T06:51:23.018Z,100767.28
2023-04-14T06:53:50.998Z,100764.59
2023-04-14T06:56:20.753Z,100764.59
2023-04-14T06:58:48.842Z,100764.59
2023-04-14T07:01:16.986Z,100760.25
2023-04-14T07:03:45.540Z,100755.63
2023-04-14T07:06:17.279Z,100760.97
2023-04-14T07:08:46.568Z,100599.91
2023-04-14T07:11:14.579Z,100696.50
2023-04-14T07:13:43.944Z,100762.66
2023-04-14T07:16:11.932Z,100767.03
2023-04-14T07:18:40.009Z,100761.94
2023-04-14T07:21:08.177Z,100756.16
2023-04-14T07:23:36.217Z,100758.97
2023-04-14T07:26:04.269Z,100766.31
2023-04-14T07:28:32.613Z,100769.69
2023-04-14T07:31:09.003Z,100780.41
2023-04-14T07:33:37.201Z,100778.72
2023-04-14T07:36:06.262Z,100780.41
2023-04-14T07:38:34.355Z,100778.72
2023-04-14T07:41:05.377Z,100773.38
2023-04-14T07:43:35.731Z,100775.06
2023-04-14T07:46:06.592Z,100781.28
2023-04-14T07:48:35.731Z,100768.00
2023-04-14T07:51:04.417Z,100772.78
2023-04-14T07:53:32.725Z,100774.53
2023-04-14T07:56:01.247Z,100765.50
2023-04-14T07:58:29.885Z,100769.75
2023-04-14T08:00:58.447Z,100771.44
2023-04-14T08:03:28.117Z,100769.75
2023-04-14T08:05:57.609Z,100767.22
2023-04-14T08:08:26.028Z,100772.84
2023-04-14T08:10:54.087Z,100765.50
2023-04-14T08:13:22.127Z,100767.47
2023-04-14T08:15:50.482Z,100769.44
2023-04-14T08:18:19.026Z,100767.47
2023-04-14T08:20:48.693Z,100781.00
2023-04-14T08:23:17.136Z,100781.88
2023-04-14T08:25:45.684Z,100778.19
2023-04-14T08:28:13.904Z,100769.28
2023-04-14T08:30:42.043Z,100720.25
2023-04-14T08:33:10.186Z,100775.50
2023-04-14T08:35:42.504Z,100773.81
2023-04-14T08:38:12.732Z,100776.50
2023-04-14T08:40:42.506Z,100780.16
2023-04-14T08:43:13.277Z,100779.31
2023-04-14T08:45:44.156Z,100700.09
2023-04-14T08:48:16.111Z,100776.06
2023-04-14T08:50:57.586Z,100772.66
2023-04-14T08:53:28.612Z,100780.69
2023-04-14T08:55:58.572Z,100769.06
2023-04-14T08:58:26.899Z,100778.28
2023-04-14T09:00:55.318Z,100774.91
2023-04-14T09:03:24.687Z,100775.84
2023-04-14T09:05:53.622Z,100775.28
2023-04-14T09:08:21.814Z,100772.47
2023-04-14T09:10:51.661Z,100769.06
2023-04-14T09:13:23.221Z,100776.13
2023-04-14T09:15:52.159Z,100771.75
2023-04-14T09:18:20.284Z,100772.75
2023-04-14T09:21:29.613Z,100772.75
2023-04-14T09:23:41.744Z,100773.03
2023-04-14T09:26:11.835Z,100770.19
2023-04-14T09:28:40.011Z,100772.03
2023-04-14T09:31:08.556Z,100773.03
2023-04-14T09:33:40.878Z,100777.50
2023-04-14T09:36:19.479Z,100773.03
2023-04-14T09:38:48.294Z,100776.91
2023-04-14T09:41:22.806Z,100771.28
2023-04-14T09:43:52.699Z,100769.59
2023-04-14T09:46:20.853Z,100774.97
2023-04-14T09:48:53.503Z,100783.00
2023-04-14T09:51:25.141Z,100780.47
2023-04-14T09:53:54.293Z,100778.63
2023-04-14T09:56:28.396Z,100752.06
2023-04-14T09:58:59.911Z,100771.81
2023-04-14T10:01:32.217Z,100773.53
2023-04-14T10:04:01.551Z,100758.31
2023-04-14T10:06:31.308Z,100772.56
2023-04-14T10:09:00.133Z,100769.03
2023-04-14T10:11:30.891Z,100778.91
2023-04-14T10:14:00.504Z,100775.22
2023-04-14T10:16:28.912Z,100768.19
2023-04-14T10:18:58.693Z,100759.44
2023-04-14T10:21:27.954Z,100762.84
2023-04-14T10:23:58.023Z,100774.38
2023-04-14T10:26:26.753Z,100778.91
2023-04-14T10:28:57.359Z,100771.69
2023-04-14T10:31:29.896Z,100762.63
2023-04-14T10:33:58.428Z,100771.81
2023-04-14T10:36:28.160Z,100775.50
2023-04-14T10:39:02.223Z,100783.53
2023-04-14T10:41:45.768Z,100745.22
2023-04-14T10:44:28.726Z,100777.44
2023-04-14T10:46:57.703Z,100775.75
2023-04-14T10:49:30.364Z,100774.75
2023-04-14T10:52:01.135Z,100774.75
2023-04-14T10:54:29.140Z,100771.81
2023-04-14T10:57:11.223Z,100772.09
2023-04-14T10:59:43.993Z,100780.84
2023-04-14T11:02:25.758Z,100780.00
2023-04-14T11:05:05.757Z,100780.84
2023-04-14T11:07:40.690Z,100772.81
2023-04-14T11:10:34.014Z,100770.13
2023-04-14T11:13:07.517Z,100765.19
2023-04-14T11:15:51.392Z,100768.44
2023-04-14T11:18:32.528Z,100775.50
2023-04-14T11:21:05.503Z,100768.44
2023-04-14T11:23:34.787Z,100772.09
2023-04-14T11:28:46.892Z,100768.53
2023-04-14T11:31:19.324Z,100768.28
2023-04-14T11:33:48.518Z,100766.31
2023-04-14T11:36:16.665Z,100759.25
2023-04-14T11:38:45.930Z,100762.66
2023-04-14T11:41:16.359Z,100758.16
2023-04-14T11:43:47.220Z,100760.97
2023-04-14T11:46:20.935Z,100766.31
2023-04-14T11:48:49.185Z,100765.47
2023-04-14T11:51:20.139Z,100755.63
2023-04-14T11:53:48.205Z,100766.31
2023-04-14T11:56:17.369Z,100766.31
2023-04-14T11:58:45.762Z,100753.91
2023-04-14T12:01:15.193Z,100755.34
2023-04-14T12:03:45.101Z,100757.03
2023-04-14T12:06:13.405Z,100750.94
2023-04-14T12:08:41.518Z,100755.34
2023-04-14T12:11:16.444Z,100759.72
2023-04-14T12:13:46.188Z,100748.28
2023-04-14T12:16:16.202Z,100754.47
2023-04-14T12:18:46.254Z,100753.63
2023-04-14T12:21:19.545Z,100750.00
2023-04-14T12:23:49.688Z,100755.34
2023-04-14T12:26:19.624Z,100753.63
2023-04-14T12:28:56.855Z,100758.03
2023-04-14T12:31:29.871Z,100762.38
2023-04-14T12:34:04.115Z,100764.06
2023-04-14T12:36:45.264Z,100765.06
2023-04-14T12:39:17.481Z,100760.44
2023-04-14T12:41:45.750Z,100755.91
2023-04-14T12:44:16.422Z,100755.06
2023-04-14T12:46:49.978Z,100755.91
2023-04-14T12:49:32.521Z,100756.91
2023-04-14T12:52:00.883Z,100746.31
2023-04-14T12:54:43.687Z,100749.72
2023-04-14T12:57:12.502Z,100750.41
2023-04-14T12:59:40.747Z,100745.91
2023-04-14T13:02:09.250Z,100751.41
2023-04-14T13:04:39.036Z,100754.78
2023-04-14T13:07:07.240Z,100750.53
2023-04-14T13:09:35.639Z,100746.03
2023-04-14T13:12:04.045Z,100751.13
2023-04-14T13:14:32.098Z,100753.69
2023-04-14T13:17:00.260Z,100747.59
2023-04-14T13:19:28.417Z,100755.50
2023-04-14T13:21:57.968Z,100752.81
2023-04-14T13:24:26.226Z,100749.16
2023-04-14T13:26:54.299Z,100745.78
2023-04-14T13:29:22.336Z,100754.50
2023-04-14T13:31:50.615Z,100752.81
2023-04-14T13:34:19.172Z,100743.91
2023-04-14T13:36:47.403Z,100750.00
2023-04-14T13:39:16.780Z,100745.78
2023-04-14T13:41:44.933Z,100745.50
2023-04-14T13:44:13.661Z,100750.88
2023-04-14T13:46:41.978Z,100750.88
2023-04-14T13:49:10.032Z,100752.81
2023-04-14T13:51:38.608Z,100754.50
2023-04-14T13:54:07.545Z,100756.34
2023-04-14T13:56:36.991Z,100756.22
2023-04-14T13:59:05.091Z,100759.72
2023-04-14T14:01:33.161Z,100747.19
2023-04-14T14:04:01.566Z,100754.22
2023-04-14T14:06:30.042Z,100750.59
2023-04-14T14:09:05.746Z,100748.19
2023-04-14T14:11:36.250Z,100755.94
2023-04-14T14:14:04.627Z,100755.94
2023-04-14T14:16:37.172Z,100756.78
2023-04-14T14:19:08.304Z,100765.69
2023-04-14T14:21:36.913Z,100759.47
2023-04-14T14:24:05.254Z,100765.94
2023-04-14T14:26:33.458Z,100772.31
2023-04-14T14:29:03.022Z,100770.56
2023-04-14T14:31:31.516Z,100763.53
2023-04-14T14:33:59.833Z,100761.00
2023-04-14T14:36:28.305Z,100756.75
2023-04-14T14:38:56.302Z,100751.13
2023-04-14T14:41:24.503Z,100758.19
2023-04-14T14:43:52.498Z,100752.81
2023-04-14T14:46:23.211Z,100749.16
2023-04-14T14:48:51.496Z,100754.78
2023-04-14T14:51:19.499Z,100756.50
2023-04-14T14:53:47.486Z,100753.53
2023-04-14T14:56:15.666Z,100745.50
2023-04-14T14:58:43.635Z,100750.88
2023-04-14T15:01:11.954Z,100754.50
2023-04-14T15:03:41.398Z,100742.97
2023-04-14T15:06:09.490Z,100747.31
2023-04-14T15:08:37.593Z,100745.78
2023-04-14T15:11:05.775Z,100753.53
2023-04-14T15:13:33.866Z,100751.81
2023-04-14T15:16:01.888Z,100754.78
2023-04-14T15:18:29.981Z,100768.31
2023-04-14T15:20:59.529Z,100761.41
2023-04-14T15:23:27.542Z,100755.34
2023-04-14T15:25:55.540Z,100751.94
2023-04-14T15:28:23.967Z,100752.06
2023-04-14T15:30:52.106Z,100753.91
2023-04-14T15:33:20.134Z,100746.00
2023-04-14T15:35:48.130Z,100746.25
2023-04-14T15:38:17.660Z,100752.47
2023-04-14T15:40:46.287Z,100747.38
2023-04-14T15:43:16.107Z,100751.63
2023-04-14T15:45:44.189Z,100751.06
2023-04-14T15:48:12.763Z,100748.25
2023-04-14T15:50:44.558Z,100753.72
2023-04-14T15:53:13.276Z,100751.31
2023-04-14T15:55:44.386Z,100749.34
2023-04-14T15:58:12.366Z,100752.03
2023-04-14T16:00:40.391Z,100751.31
2023-04-14T16:03:08.736Z,100751.31
2023-04-14T16:05:36.804Z,100747.91
2023-04-14T16:08:05.139Z,100751.31
2023-04-14T16:10:33.146Z,100751.31
2023-04-14T16:13:02.806Z,100756.69
2023-04-14T16:15:31.342Z,100751.59
2023-04-14T16:17:59.352Z,100762.03
2023-04-14T16:20:27.565Z,100749.34
2023-04-14T16:22:55.629Z,100752.75
2023-04-14T16:25:23.975Z,100745.44
2023-04-14T16:27:52.076Z,100746.84
2023-04-14T16:30:21.824Z,100741.22
2023-04-14T16:32:50.126Z,100747.44
2023-04-14T16:35:18.343Z,100744.91
2023-04-14T16:37:46.471Z,100741.50
2023-04-14T16:40:14.923Z,100745.31
2023-04-14T16:42:42.966Z,100745.44
2023-04-14T16:45:11.764Z,100738.34
2023-04-14T16:47:41.360Z,100738.63
2023-04-14T16:50:10.138Z,100736.94
2023-04-14T16:52:38.199Z,100742.28
2023-04-14T16:55:06.971Z,100748.66
2023-04-14T16:57:35.048Z,100744.50
2023-04-14T17:00:03.328Z,100737.22
2023-04-14T17:02:31.767Z,100742.56
2023-04-14T17:05:01.586Z,100746.25
2023-04-14T17:07:29.754Z,100751.59
2023-04-14T17:09:59.002Z,100756.94
2023-04-14T17:12:27.210Z,100762.31
2023-04-14T17:14:56.336Z,100752.56
2023-04-14T17:17:24.664Z,100744.50
2023-04-14T17:19:54.036Z,100745.38
2023-04-14T17:22:24.655Z,100738.00
2023-04-14T17:24:53.426Z,100749.88
2023-04-14T17:27:21.917Z,100735.78
2023-04-14T17:29:49.995Z,100732.13
2023-04-14T17:32:19.655Z,100732.13
2023-04-14T17:34:49.075Z,100737.47
2023-04-14T17:37:17.450Z,100734.78
2023-04-14T17:39:49.222Z,100742.84
2023-04-14T17:42:17.254Z,100735.78
2023-04-14T17:44:45.383Z,100741.16
2023-04-14T17:47:15.535Z,100737.75
2023-04-14T17:49:43.945Z,100750.00
2023-04-14T17:52:12.716Z,100758.91
2023-04-14T17:54:41.127Z,100758.91
2023-04-14T17:57:12.986Z,100749.88
2023-04-14T17:59:41.722Z,100757.22
2023-04-14T18:02:14.036Z,100741.09
2023-04-14T18:04:42.239Z,100764.13
2023-04-14T18:07:10.349Z,100765.13
2023-04-14T18:09:38.435Z,100769.59
2023-04-14T18:12:06.659Z,100769.59
2023-04-14T18:14:36.878Z,100759.03
2023-04-14T18:17:05.043Z,100767.94
2023-04-14T18:19:33.424Z,100760.84
2023-04-14T18:22:03.287Z,100769.88
2023-04-14T18:28:02.896Z,100761.97
2023-04-14T18:29:54.458Z,100757.47
2023-04-14T18:32:25.338Z,100752.13
2023-04-14T18:34:53.461Z,100757.47
2023-04-14T18:37:21.550Z,100760.28
2023-04-14T18:39:49.700Z,100762.84
2023-04-14T18:42:17.795Z,100767.31
2023-04-14T18:44:45.860Z,100777.19
2023-04-14T18:47:15.929Z,100770.13
2023-04-14T18:49:43.892Z,100777.19
2023-04-14T18:52:12.081Z,100777.19
2023-04-14T18:54:40.191Z,100778.03
2023-04-14T18:57:08.464Z,100777.19
2023-04-14T18:59:36.452Z,100777.44
2023-04-14T19:02:05.377Z,100771.81
2023-04-14T19:04:34.965Z,100779.84
2023-04-14T19:07:03.034Z,100780.00
2023-04-14T19:09:31.116Z,100784.78
2023-04-14T19:11:59.249Z,100790.56
2023-04-14T19:14:27.794Z,100785.34
2023-04-14T19:16:55.841Z,100786.22
2023-04-14T19:19:23.872Z,100787.06
2023-04-14T19:21:53.397Z,100793.25
2023-04-14T19:24:21.405Z,100791.56
2023-04-14T19:26:49.637Z,100788.16
2023-04-14T19:29:17.658Z,100788.16
2023-04-14T19:31:45.730Z,100796.06
2023-04-14T19:34:13.802Z,100795.22
2023-04-14T19:36:42.160Z,100798.88
2023-04-14T19:39:11.653Z,100805.94
2023-04-14T19:41:39.681Z,100799.72
2023-04-14T19:44:08.547Z,100800.59
2023-04-14T19:46:37.298Z,100800.59
2023-04-14T19:49:05.528Z,100805.94
2023-04-14T19:51:33.808Z,100805.94
2023-04-14T19:54:02.311Z,100802.53
2023-04-14T19:56:31.815Z,100802.28
2023-04-14T19:59:00.253Z,100808.63
2023-04-14T20:01:28.697Z,100811.31
2023-04-14T20:04:08.434Z,100806.78
2023-04-14T20:06:41.188Z,100800.59
2023-04-14T20:09:09.265Z,100800.72
2023-04-14T20:11:39.796Z,100798.03
2023-04-14T20:14:07.882Z,100811.31
2023-04-14T20:16:36.160Z,100803.25
2023-04-14T20:19:04.304Z,100808.63
2023-04-14T20:21:32.935Z,100762.13
2023-04-14T20:24:01.548Z,100802.41
2023-04-14T20:26:29.841Z,100810.44
2023-04-14T20:28:59.744Z,100795.50
2023-04-14T20:31:29.203Z,100808.88
2023-04-14T20:33:57.376Z,100822.00
2023-04-14T20:36:25.472Z,100816.66
2023-04-14T20:38:53.569Z,100813.25
2023-04-14T20:41:21.769Z,100816.66
2023-04-14T20:43:49.907Z,100804.22
2023-04-14T20:46:21.013Z,100809.56
2023-04-14T20:48:49.367Z,100825.66
2023-04-14T20:51:18.113Z,100829.31
2023-04-14T20:53:46.417Z,100830.03
2023-04-14T20:56:14.459Z,100822.00
2023-04-14T20:58:42.620Z,100831.00
2023-04-14T21:01:11.501Z,100825.66
2023-04-14T21:03:41.103Z,100831.00
2023-04-14T21:06:09.637Z,100832.72
2023-04-14T21:08:39.387Z,100836.34
2023-04-14T21:11:17.172Z,100831.00
2023-04-14T21:15:30.207Z,100825.66
2023-04-14T21:16:34.069Z,100830.31
2023-04-14T21:19:04.858Z,100832.00
2023-04-14T21:21:33.384Z,100834.66
2023-04-14T21:24:01.630Z,100836.34
2023-04-14T21:26:29.695Z,100840.03
2023-04-14T21:28:57.917Z,100840.03
2023-04-14T21:31:25.964Z,100845.38
2023-04-14T21:33:54.134Z,100832.13
2023-04-14T21:36:24.547Z,100834.66
2023-04-14T21:38:52.736Z,100836.63
2023-04-14T21:41:21.008Z,100834.66
2023-04-14T21:43:49.093Z,100845.38
2023-04-14T21:46:17.270Z,100841.84
2023-04-14T21:48:45.481Z,100852.69
2023-04-14T21:51:13.521Z,100849.88
2023-04-14T21:53:42.963Z,100847.19
2023-04-14T21:56:12.897Z,100846.38
2023-04-14T21:58:41.003Z,100853.53
2023-04-14T22:01:09.979Z,100838.72
2023-04-14T22:03:40.596Z,100849.03
2023-04-14T22:06:10.091Z,100848.19
2023-04-14T22:08:40.304Z,100854.41
2023-04-14T22:11:09.879Z,100849.03
2023-04-14T22:13:38.126Z,100851.00
2023-04-14T22:16:06.815Z,100852.56
2023-04-14T22:18:35.949Z,100861.72
2023-04-14T22:21:04.877Z,100861.44
2023-04-14T22:23:33.086Z,100855.34
2023-04-14T22:26:01.201Z,100866.81
2023-04-14T22:28:30.680Z,100863.13
2023-04-14T22:30:58.773Z,100863.13
2023-04-14T22:33:27.489Z,100872.16
2023-04-14T22:35:55.575Z,100876.53
2023-04-14T22:38:23.661Z,100868.50
2023-04-14T22:40:52.774Z,100873.84
2023-04-14T22:43:21.015Z,100868.50
2023-04-14T22:45:51.086Z,100877.50
2023-04-14T22:48:19.179Z,100876.53
2023-04-14T22:50:47.257Z,100879.19
2023-04-14T22:53:15.329Z,100886.53
2023-04-14T22:55:44.279Z,100891.88
2023-04-14T22:58:16.741Z,100895.25
2023-04-14T23:00:45.633Z,100881.19
2023-04-14T23:03:15.632Z,100887.22
2023-04-14T23:05:44.776Z,100892.59
2023-04-14T23:08:12.915Z,100896.13
2023-04-14T23:10:40.984Z,100905.97
2023-04-14T23:13:09.498Z,100904.28
2023-04-14T23:15:37.561Z,100905.97
2023-04-14T23:18:05.792Z,100911.34
2023-04-14T23:20:35.398Z,100907.69
2023-04-14T23:23:03.609Z,100908.66
2023-04-14T23:25:31.672Z,100905.03
2023-04-14T23:27:59.832Z,100909.38
2023-04-14T23:30:28.819Z,100911.34
2023-04-14T23:32:57.160Z,100907.69
2023-04-14T23:35:25.238Z,100905.97
2023-04-14T23:37:54.701Z,100910.38
2023-04-14T23:40:22.881Z,100900.63
2023-04-14T23:42:50.925Z,100897.00
2023-04-14T23:45:18.941Z,100897.00
2023-04-14T23:47:47.393Z,100894.31
2023-04-14T23:50:15.461Z,100895.25
2023-04-14T23:52:44.356Z,100887.09
2023-04-14T23:55:13.904Z,100893.31
2023-04-14T23:57:42.677Z,100898.69
